Time;durP1;ratioP1;P1;durP2;ratioP2;P2;SDS_P1;SDS_P2;PMS_P1;PMS_P2;Temp;Humidity;BMP_temperature;BMP_pressure;BME280_temperature;BME280_humidity;BME280_pressure;Samples;Min_cycle;Max_cycle;Signal;HPM_P1;HPM_P2
2023/05/24 00:00:27;;;;;;;6.63;2.13;;;;;;;11.35;100.00;101790.03;5125992;27;20033;-75
2023/05/24 00:02:56;;;;;;;10.45;3.00;;;;;;;11.37;100.00;101790.72;5081632;27;20481;-75
2023/05/24 00:05:24;;;;;;;10.48;2.35;;;;;;;11.39;100.00;101791.47;5130022;27;20531;-75
2023/05/24 00:07:54;;;;;;;11.43;2.42;;;;;;;11.49;100.00;101801.34;5115045;27;20084;-76
2023/05/24 00:10:23;;;;;;;10.85;2.10;;;;;;;11.58;100.00;101800.66;5116517;27;20038;-76
2023/05/24 00:12:52;;;;;;;7.05;2.50;;;;;;;11.60;100.00;101805.81;5102234;27;20035;-75
2023/05/24 00:15:20;;;;;;;8.40;2.17;;;;;;;11.54;100.00;101797.41;5117164;27;20084;-75
2023/05/24 00:17:48;;;;;;;10.18;2.50;;;;;;;11.54;100.00;101807.16;5125265;27;20055;-75
2023/05/24 00:20:19;;;;;;;8.85;2.55;;;;;;;11.46;100.00;101806.88;5117643;27;20034;-75
2023/05/24 00:22:48;;;;;;;14.70;4.13;;;;;;;11.52;100.00;101809.91;5117455;27;20054;-76
2023/05/24 00:25:16;;;;;;;14.15;2.58;;;;;;;11.57;100.00;101806.06;5123833;27;20039;-75
2023/05/24 00:27:45;;;;;;;10.40;2.25;;;;;;;11.68;100.00;101800.78;5128409;27;20038;-76
2023/05/24 00:30:14;;;;;;;9.18;2.42;;;;;;;11.75;100.00;101807.28;5103567;27;20038;-74
2023/05/24 00:32:42;;;;;;;6.97;2.67;;;;;;;11.78;100.00;101808.88;5119765;27;20067;-76
2023/05/24 00:35:10;;;;;;;6.78;2.15;;;;;;;11.82;100.00;101804.19;5111370;27;20644;-76
2023/05/24 00:37:43;;;;;;;6.68;2.08;;;;;;;11.85;100.00;101811.91;5126195;27;20035;-75
2023/05/24 00:40:12;;;;;;;8.23;2.30;;;;;;;11.90;100.00;101804.41;5121740;27;20038;-76
2023/05/24 00:42:40;;;;;;;8.25;2.33;;;;;;;11.90;100.00;101809.72;5121635;27;20084;-75
2023/05/24 00:45:08;;;;;;;8.70;2.38;;;;;;;11.93;100.00;101804.19;5100439;27;20039;-76
2023/05/24 00:47:36;;;;;;;6.13;2.15;;;;;;;11.91;100.00;101795.53;5109937;27;20026;-75
2023/05/24 00:50:07;;;;;;;9.57;2.53;;;;;;;11.94;100.00;101789.13;5120486;27;20146;-76
2023/05/24 00:52:36;;;;;;;8.52;2.30;;;;;;;11.91;100.00;101795.53;5128607;27;20023;-75
2023/05/24 00:55:04;;;;;;;6.68;2.53;;;;;;;11.90;100.00;101796.47;5108672;27;20080;-76
2023/05/24 00:57:32;;;;;;;5.53;1.80;;;;;;;11.86;100.00;101792.38;5096577;27;20035;-75
2023/05/24 01:00:04;;;;;;;7.00;2.00;;;;;;;11.78;100.00;101785.84;5101536;27;20097;-75
2023/05/24 01:02:34;;;;;;;6.20;2.10;;;;;;;11.66;100.00;101787.66;5127762;27;20027;-78
2023/05/24 01:05:05;;;;;;;5.55;1.50;;;;;;;11.57;100.00;101780.44;5109595;27;20042;-79
2023/05/24 01:07:52;;;;;;;6.78;2.42;;;;;;;11.53;100.00;101779.81;5108322;28;20066;-75
2023/05/24 01:10:26;;;;;;;4.40;1.92;;;;;;;11.50;100.00;101777.41;5111087;28;20074;-75
2023/05/24 01:13:07;;;;;;;5.57;2.22;;;;;;;11.49;100.00;101778.38;5109208;27;20041;-75
2023/05/24 01:15:50;;;;;;;14.48;2.50;;;;;;;11.50;100.00;101785.34;5110781;27;20039;-75
2023/05/24 01:18:35;;;;;;;12.85;2.92;;;;;;;11.50;100.00;101780.06;5119476;27;20031;-75
2023/05/24 01:21:23;;;;;;;5.53;2.15;;;;;;;11.50;100.00;101781.84;5114442;27;20546;-75
2023/05/24 01:24:22;;;;;;;6.53;1.92;;;;;;;11.45;100.00;101774.25;5121875;27;20111;-75
2023/05/24 01:27:07;;;;;;;5.32;2.40;;;;;;;11.46;100.00;101772.47;5117122;28;20020;-75
2023/05/24 01:29:35;;;;;;;10.82;2.40;;;;;;;11.42;100.00;101774.50;5119217;28;20035;-79
2023/05/24 01:32:04;;;;;;;8.25;2.80;;;;;;;11.42;100.00;101769.19;5124777;28;20372;-75
2023/05/24 01:34:32;;;;;;;7.75;2.85;;;;;;;11.37;100.00;101774.84;5117983;28;20028;-75
2023/05/24 01:37:02;;;;;;;7.50;3.00;;;;;;;11.32;100.00;101774.38;5123931;28;20028;-75
2023/05/24 01:39:31;;;;;;;9.18;2.90;;;;;;;11.18;100.00;101772.75;5105423;28;20484;-75
2023/05/24 01:42:11;;;;;;;10.60;3.45;;;;;;;11.06;100.00;101778.97;5127267;28;20027;-76
2023/05/24 01:44:59;;;;;;;10.30;3.20;;;;;;;10.85;100.00;101776.94;5117534;28;20044;-75
2023/05/24 01:47:42;;;;;;;9.48;3.63;;;;;;;10.73;100.00;101770.78;5120388;28;20172;-79
2023/05/24 01:50:20;;;;;;;7.72;3.00;;;;;;;10.66;100.00;101792.38;5113088;28;20124;-79
2023/05/24 01:52:51;;;;;;;10.75;3.25;;;;;;;10.64;100.00;101782.84;5125359;28;20384;-75
2023/05/24 01:55:22;;;;;;;12.50;3.17;;;;;;;10.67;100.00;101783.47;5112542;28;20044;-75
2023/05/24 01:57:58;;;;;;;9.93;2.95;;;;;;;10.76;100.00;101776.69;5106022;28;20058;-75
2023/05/24 02:00:30;;;;;;;12.45;3.88;;;;;;;10.82;100.00;101778.03;5108639;27;20481;-75
2023/05/24 02:03:01;;;;;;;9.65;2.92;;;;;;;10.91;100.00;101779.13;5134961;27;20055;-75
2023/05/24 02:05:34;;;;;;;8.05;3.08;;;;;;;10.95;100.00;101791.19;5129346;27;20662;-75
2023/05/24 02:08:07;;;;;;;7.68;2.83;;;;;;;10.96;100.00;101795.53;5126069;27;20530;-75
2023/05/24 02:10:38;;;;;;;7.10;2.88;;;;;;;10.93;100.00;101790.47;5123625;27;20035;-75
2023/05/24 02:13:09;;;;;;;10.50;2.92;;;;;;;10.90;100.00;101785.38;5116429;27;20090;-75
2023/05/24 02:15:40;;;;;;;5.93;2.80;;;;;;;10.82;100.00;101790.41;5112693;27;20034;-75
2023/05/24 02:18:13;;;;;;;6.88;3.15;;;;;;;10.79;100.00;101794.97;5112068;27;20028;-76
2023/05/24 02:20:42;;;;;;;8.02;3.03;;;;;;;10.77;100.00;101790.72;5132374;27;20034;-75
2023/05/24 02:23:09;;;;;;;7.82;3.17;;;;;;;10.77;100.00;101790.72;5130721;27;20031;-75
2023/05/24 02:25:37;;;;;;;7.15;2.90;;;;;;;10.75;100.00;101787.38;5113542;27;20118;-76
2023/05/24 02:28:07;;;;;;;9.15;3.20;;;;;;;10.75;100.00;101787.38;5120593;27;20047;-75
2023/05/24 02:30:37;;;;;;;8.30;2.85;;;;;;;10.78;100.00;101785.34;5120857;27;20058;-75
2023/05/24 02:33:06;;;;;;;6.78;3.47;;;;;;;10.82;100.00;101779.81;5101093;28;20112;-75
2023/05/24 02:35:33;;;;;;;5.72;2.67;;;;;;;10.81;100.00;101784.28;5114361;27;20028;-76
2023/05/24 02:38:05;;;;;;;4.93;2.20;;;;;;;10.77;100.00;101782.81;5119526;27;20042;-75
2023/05/24 02:40:33;;;;;;;7.63;3.30;;;;;;;10.66;100.00;101783.59;5132723;27;20027;-75
2023/05/24 02:43:03;;;;;;;13.50;3.55;;;;;;;10.64;100.00;101793.41;5101685;28;20100;-79
2023/05/24 02:45:31;;;;;;;11.38;3.10;;;;;;;10.62;100.00;101798.00;5115187;27;20540;-79
2023/05/24 02:47:59;;;;;;;11.10;3.30;;;;;;;10.57;100.00;101797.47;5114066;27;20054;-75
2023/05/24 02:50:28;;;;;;;9.80;3.35;;;;;;;10.59;100.00;101793.75;5115250;27;20492;-75
2023/05/24 02:52:58;;;;;;;7.80;3.00;;;;;;;10.61;100.00;101796.28;5122158;27;20476;-76
2023/05/24 02:55:27;;;;;;;10.27;2.78;;;;;;;10.66;100.00;101808.25;5128620;27;20027;-76
2023/05/24 02:57:55;;;;;;;7.93;3.28;;;;;;;10.63;100.00;101799.69;5087909;27;20023;-75
2023/05/24 03:00:25;;;;;;;10.88;3.40;;;;;;;10.65;100.00;101808.34;5093000;28;20493;-75
2023/05/24 03:02:54;;;;;;;9.30;3.15;;;;;;;10.65;100.00;101806.53;5113254;27;20061;-76
2023/05/24 03:05:22;;;;;;;10.32;3.35;;;;;;;10.72;100.00;101787.59;5128390;27;20046;-75
2023/05/24 03:07:50;;;;;;;7.65;3.58;;;;;;;10.64;100.00;101793.41;5126490;27;20492;-75
2023/05/24 03:10:18;;;;;;;7.65;3.35;;;;;;;10.61;100.00;101791.84;5088206;27;20046;-75
2023/05/24 03:12:46;;;;;;;8.63;3.40;;;;;;;10.51;100.00;101794.31;5088004;28;20088;-76
2023/05/24 03:15:16;;;;;;;5.88;3.08;;;;;;;10.51;100.00;101799.59;5111302;27;20035;-75
2023/05/24 03:17:45;;;;;;;8.40;3.13;;;;;;;10.54;100.00;101809.97;5110684;27;20050;-75
2023/05/24 03:20:14;;;;;;;3.72;2.45;;;;;;;10.54;100.00;101794.09;5109856;27;20038;-76
2023/05/24 03:22:42;;;;;;;8.85;3.92;;;;;;;10.53;100.00;101800.34;5107606;28;20032;-75
2023/05/24 03:25:10;;;;;;;7.47;3.25;;;;;;;10.54;100.00;101803.84;5127647;27;20035;-76
2023/05/24 03:27:38;;;;;;;6.45;2.92;;;;;;;10.53;100.00;101812.72;5117392;27;20039;-74
2023/05/24 03:30:06;;;;;;;6.05;3.40;;;;;;;10.52;100.00;101803.94;5128249;27;20035;-75
2023/05/24 03:32:40;;;;;;;9.18;3.22;;;;;;;10.39;100.00;101797.81;5097491;27;20510;-76
2023/05/24 03:35:13;;;;;;;11.27;3.13;;;;;;;10.36;100.00;101806.81;5124008;27;20043;-75
2023/05/24 03:37:44;;;;;;;10.20;3.83;;;;;;;10.30;100.00;101801.97;5122489;27;20028;-79
2023/05/24 03:40:14;;;;;;;7.85;3.63;;;;;;;10.30;100.00;101794.88;5108516;27;20031;-79
2023/05/24 03:43:08;;;;;;;9.48;3.80;;;;;;;10.27;100.00;101794.25;5126621;27;20153;-76
2023/05/24 03:45:44;;;;;;;6.20;3.35;;;;;;;10.23;100.00;101796.25;5128687;27;20114;-76
2023/05/24 03:48:13;;;;;;;3.97;3.25;;;;;;;10.25;100.00;101796.16;5114600;27;20112;-75
2023/05/24 03:50:40;;;;;;;7.45;3.05;;;;;;;10.26;100.00;101790.75;5121830;27;20044;-75
2023/05/24 03:53:08;;;;;;;10.13;3.08;;;;;;;10.26;100.00;101782.84;5098395;28;20047;-75
2023/05/24 03:55:36;;;;;;;7.80;3.30;;;;;;;10.30;100.00;101786.09;5093472;27;20031;-76
2023/05/24 03:58:04;;;;;;;6.22;3.13;;;;;;;10.32;100.00;101783.34;5123170;27;20023;-75
2023/05/24 04:00:32;;;;;;;10.00;3.28;;;;;;;10.29;100.00;101790.53;5112406;27;20034;-76
2023/05/24 04:03:00;;;;;;;5.65;3.00;;;;;;;10.27;100.00;101799.53;5124023;27;20031;-76
2023/05/24 04:05:29;;;;;;;4.90;3.40;;;;;;;10.27;100.00;101804.81;5096725;27;20110;-76
2023/05/24 04:07:57;;;;;;;7.82;2.80;;;;;;;10.23;100.00;101801.53;5123239;27;20480;-75
2023/05/24 04:10:25;;;;;;;8.98;3.28;;;;;;;10.26;100.00;101800.47;5125413;27;20039;-75
2023/05/24 04:12:53;;;;;;;8.38;2.95;;;;;;;10.26;100.00;101798.69;5108727;28;20020;-79
2023/05/24 04:15:23;;;;;;;6.00;3.40;;;;;;;10.26;100.00;101803.13;5097400;27;20042;-79
2023/05/24 04:17:54;;;;;;;8.07;3.30;;;;;;;10.17;100.00;101802.84;5104287;27;20401;-75
2023/05/24 04:20:25;;;;;;;8.27;3.10;;;;;;;10.20;100.00;101804.41;5101498;28;20553;-74
2023/05/24 04:22:55;;;;;;;11.05;3.67;;;;;;;10.23;100.00;101800.69;5123941;27;20559;-74
2023/05/24 04:25:26;;;;;;;10.10;3.50;;;;;;;10.23;100.00;101801.53;5109864;27;20177;-75
2023/05/24 04:27:56;;;;;;;8.23;3.45;;;;;;;10.26;100.00;101811.03;5093528;28;20046;-80
2023/05/24 04:30:25;;;;;;;9.52;3.10;;;;;;;10.23;100.00;101817.41;5122705;27;20027;-79
2023/05/24 04:32:52;;;;;;;11.70;3.30;;;;;;;10.22;100.00;101813.09;5110612;27;20263;-76
2023/05/24 04:35:20;;;;;;;10.45;3.78;;;;;;;10.17;100.00;101810.75;5121203;27;20496;-76
2023/05/24 04:37:49;;;;;;;10.88;4.00;;;;;;;10.17;100.00;101810.75;5132913;27;20369;-75
2023/05/24 04:40:19;;;;;;;8.75;3.67;;;;;;;10.09;100.00;101812.22;5088634;27;20508;-77
2023/05/24 04:42:48;;;;;;;8.35;3.70;;;;;;;10.08;100.00;101803.44;5129092;27;20101;-78
2023/05/24 04:45:16;;;;;;;7.50;2.92;;;;;;;10.05;100.00;101807.16;5123931;27;20070;-80
2023/05/24 04:47:43;;;;;;;4.43;2.67;;;;;;;10.15;100.00;101804.72;5120791;27;20476;-77
2023/05/24 04:50:11;;;;;;;7.72;3.40;;;;;;;10.17;100.00;101809.91;5125249;27;20050;-76
2023/05/24 04:52:39;;;;;;;7.47;3.65;;;;;;;10.28;100.00;101814.44;5054492;27;20038;-77
2023/05/24 04:55:07;;;;;;;7.80;3.15;;;;;;;10.34;100.00;101821.94;5110883;27;20041;-76
2023/05/24 04:57:36;;;;;;;10.13;3.65;;;;;;;10.40;100.00;101821.50;5119378;27;20122;-75
2023/05/24 05:00:07;;;;;;;7.38;3.10;;;;;;;10.41;100.00;101819.69;5123682;27;20042;-77
2023/05/24 05:02:36;;;;;;;11.02;4.00;;;;;;;10.32;100.00;101821.19;5110282;27;20454;-80
2023/05/24 05:05:04;;;;;;;6.80;2.97;;;;;;;10.20;100.00;101819.41;5114847;27;20034;-80
2023/05/24 05:07:34;;;;;;;10.00;3.72;;;;;;;10.13;100.00;101824.31;5120138;27;20099;-79
2023/05/24 05:10:04;;;;;;;10.60;4.05;;;;;;;10.08;100.00;101823.75;5125955;27;20018;-78
2023/05/24 05:12:34;;;;;;;8.98;3.95;;;;;;;10.03;100.00;101827.56;5118126;27;20027;-77
2023/05/24 05:15:04;;;;;;;11.77;3.45;;;;;;;10.05;100.00;101833.59;5123977;27;20042;-75
2023/05/24 05:17:32;;;;;;;7.20;3.38;;;;;;;10.08;100.00;101835.16;5124732;27;20099;-76
2023/05/24 05:20:00;;;;;;;10.27;3.35;;;;;;;10.07;100.00;101833.47;5111595;28;20118;-77
2023/05/24 05:22:28;;;;;;;10.32;4.25;;;;;;;10.12;100.00;101833.16;5114430;27;20038;-74
2023/05/24 05:24:56;;;;;;;11.48;4.03;;;;;;;10.12;100.00;101833.16;5119303;27;20102;-75
2023/05/24 05:27:23;;;;;;;9.18;3.55;;;;;;;10.14;100.00;101836.53;5125310;28;20507;-76
